createdAt,value
2022-09-11T00:00:52.795Z,15.51
2022-09-11T00:05:55.263Z,15.13
2022-09-11T00:11:04.289Z,14.73
2022-09-11T00:16:08.340Z,14.24
2022-09-11T00:21:10.986Z,14.21
2022-09-11T00:26:14.802Z,14.22
2022-09-11T00:31:22.211Z,14.63
2022-09-11T00:36:27.861Z,14.80
2022-09-11T00:41:36.290Z,14.54
2022-09-11T00:46:43.053Z,14.24
2022-09-11T00:51:49.057Z,14.05
2022-09-11T00:56:54.210Z,14.52
2022-09-11T01:01:56.892Z,14.86
2022-09-11T01:07:01.088Z,15.14
2022-09-11T01:12:11.084Z,15.39
2022-09-11T01:17:22.581Z,15.37
2022-09-11T01:22:46.370Z,15.88
2022-09-11T01:27:51.886Z,15.83
2022-09-11T01:33:11.230Z,15.79
2022-09-11T01:38:17.962Z,15.71
2022-09-11T01:43:26.999Z,15.51
2022-09-11T01:48:34.198Z,15.70
2022-09-11T01:53:39.974Z,15.41
2022-09-11T01:58:47.905Z,15.77
2022-09-11T02:03:55.055Z,15.82
2022-09-11T02:09:01.500Z,16.44
2022-09-11T02:14:10.628Z,16.63
2022-09-11T02:19:15.809Z,16.31
2022-09-11T02:24:19.906Z,16.46
2022-09-11T02:29:24.405Z,16.22
2022-09-11T02:34:29.782Z,15.56
2022-09-11T02:39:50.460Z,15.71
2022-09-11T02:45:04.545Z,15.98
2022-09-11T02:50:15.369Z,15.50
2022-09-11T02:55:25.283Z,15.96
2022-09-11T03:00:29.502Z,16.06
2022-09-11T03:05:32.144Z,16.27
2022-09-11T03:10:34.945Z,15.64
2022-09-11T03:15:38.751Z,15.66
2022-09-11T03:20:41.310Z,15.28
2022-09-11T03:25:43.779Z,15.68
2022-09-11T03:30:49.184Z,15.24
2022-09-11T03:35:51.805Z,15.26
2022-09-11T03:40:55.030Z,14.97
2022-09-11T03:46:00.586Z,15.47
2022-09-11T03:51:05.680Z,15.47
2022-09-11T03:56:08.311Z,15.26
2022-09-11T04:01:14.222Z,14.66
2022-09-11T04:06:17.162Z,15.19
2022-09-11T04:11:19.722Z,15.24
2022-09-11T04:16:23.733Z,15.22
2022-09-11T04:21:27.654Z,14.49
2022-09-11T04:26:33.033Z,14.33
2022-09-11T04:31:38.380Z,14.97
2022-09-11T04:36:40.908Z,15.10
2022-09-11T04:41:44.301Z,15.57
2022-09-11T04:46:48.138Z,14.85
2022-09-11T04:51:50.815Z,15.01
2022-09-11T04:56:54.747Z,15.44
2022-09-11T05:02:10.477Z,16.03
2022-09-11T05:07:14.486Z,16.34
2022-09-11T05:12:17.718Z,15.89
2022-09-11T05:17:21.522Z,15.71
2022-09-11T05:22:24.932Z,15.26
2022-09-11T05:27:27.337Z,16.38
2022-09-11T05:32:31.142Z,16.64
2022-09-11T05:37:33.623Z,16.53
2022-09-11T05:42:36.050Z,16.86
2022-09-11T05:47:40.148Z,17.09
2022-09-11T05:52:42.620Z,17.28
2022-09-11T05:57:45.086Z,17.55
2022-09-11T06:02:49.003Z,17.52
2022-09-11T06:07:51.621Z,17.71
2022-09-11T06:12:54.075Z,17.74
2022-09-11T06:17:58.105Z,17.71
2022-09-11T06:23:00.882Z,17.94
2022-09-11T06:28:04.175Z,17.68
2022-09-11T06:33:08.210Z,17.85
2022-09-11T06:38:10.834Z,17.68
2022-09-11T06:43:14.828Z,17.79
2022-09-11T06:48:19.831Z,17.59
2022-09-11T06:53:22.238Z,17.74
2022-09-11T06:58:24.659Z,17.29
2022-09-11T07:03:29.783Z,17.70
2022-09-11T07:08:32.636Z,17.62
2022-09-11T07:13:37.547Z,17.83
2022-09-11T07:18:43.178Z,18.01
2022-09-11T07:23:49.737Z,17.32
2022-09-11T07:28:52.691Z,17.48
2022-09-11T07:33:57.277Z,17.42
2022-09-11T07:39:00.407Z,17.23
2022-09-11T07:44:03.640Z,17.50
2022-09-11T07:49:10.019Z,17.75
2022-09-11T07:54:12.892Z,17.61
2022-09-11T07:59:16.272Z,17.78
2022-09-11T08:04:20.134Z,17.66
2022-09-11T08:09:22.575Z,18.00
2022-09-11T08:14:26.734Z,18.15
2022-09-11T08:19:30.584Z,17.81
2022-09-11T08:24:33.834Z,17.74
2022-09-11T08:29:36.330Z,17.85
2022-09-11T08:34:40.167Z,17.71
2022-09-11T08:39:42.615Z,18.00
2022-09-11T08:44:50.207Z,18.20
2022-09-11T08:49:59.439Z,18.66
2022-09-11T08:55:02.219Z,19.01
2022-09-11T09:00:17.175Z,18.86
2022-09-11T09:05:31.511Z,18.56
2022-09-11T09:10:45.535Z,18.27
2022-09-11T09:15:55.356Z,18.18
2022-09-11T09:21:03.494Z,18.23
2022-09-11T09:26:08.522Z,18.18
2022-09-11T09:31:14.946Z,17.68
2022-09-11T09:36:22.408Z,17.83
2022-09-11T09:41:49.673Z,17.61
2022-09-11T09:46:54.207Z,17.76
2022-09-11T09:52:04.210Z,17.54
2022-09-11T09:57:10.388Z,16.90
2022-09-11T10:02:13.720Z,17.06
2022-09-11T10:07:24.392Z,17.12
2022-09-11T10:12:31.437Z,16.92
2022-09-11T10:17:38.385Z,17.15
2022-09-11T10:22:43.341Z,17.33
2022-09-11T10:27:56.264Z,17.80
2022-09-11T10:33:03.490Z,18.11
2022-09-11T10:38:19.500Z,18.54
2022-09-11T10:43:25.755Z,18.27
2022-09-11T10:48:28.514Z,17.95
2022-09-11T10:53:41.177Z,17.95
2022-09-11T10:58:47.297Z,18.16
2022-09-11T11:03:50.123Z,18.19
2022-09-11T11:09:06.257Z,18.90
2022-09-11T11:14:23.982Z,19.19
2022-09-11T11:19:41.459Z,19.38
2022-09-11T11:25:00.076Z,19.47
2022-09-11T11:30:10.788Z,19.52
2022-09-11T11:35:21.795Z,19.69
2022-09-11T11:40:29.992Z,20.29
2022-09-11T11:45:37.874Z,20.56
2022-09-11T11:50:43.553Z,19.79
2022-09-11T11:55:56.991Z,19.75
2022-09-11T12:01:03.163Z,19.99
2022-09-11T12:06:07.845Z,20.16
2022-09-11T12:11:13.758Z,19.81
2022-09-11T12:16:21.224Z,20.43
2022-09-11T12:21:41.481Z,18.97
2022-09-11T12:26:45.970Z,18.65
2022-09-11T12:32:19.336Z,18.53
2022-09-11T12:37:28.014Z,18.65
2022-09-11T12:43:16.981Z,18.42
2022-09-11T12:48:23.819Z,18.73
2022-09-11T12:53:31.254Z,18.57
2022-09-11T12:58:38.842Z,19.18
2022-09-11T13:03:51.577Z,19.33
2022-09-11T13:08:59.807Z,19.52
2022-09-11T13:14:04.189Z,19.65
2022-09-11T13:19:13.763Z,19.63
2022-09-11T13:24:25.324Z,19.87
2022-09-11T13:29:31.546Z,20.38
2022-09-11T13:34:36.472Z,20.57
2022-09-11T13:39:43.044Z,20.86
2022-09-11T13:44:50.060Z,20.91
2022-09-11T13:49:56.450Z,20.54
2022-09-11T13:55:03.420Z,21.29
2022-09-11T14:00:41.095Z,24.00
2022-09-11T14:05:50.524Z,23.76
2022-09-11T14:10:56.301Z,25.72
2022-09-11T14:16:04.238Z,28.07
2022-09-11T14:21:14.296Z,32.42
2022-09-11T14:26:18.586Z,32.34
2022-09-11T14:31:37.478Z,31.61
2022-09-11T14:36:44.242Z,30.35
2022-09-11T14:41:46.965Z,30.87
2022-09-11T14:46:50.929Z,23.15
2022-09-11T14:51:58.254Z,25.06
2022-09-11T14:57:01.200Z,27.04
2022-09-11T15:02:05.846Z,26.43
2022-09-11T15:07:11.900Z,25.40
2022-09-11T15:12:15.622Z,24.17
2022-09-11T15:17:20.285Z,23.71
2022-09-11T15:22:23.275Z,22.77
2022-09-11T15:27:25.974Z,23.05
2022-09-11T15:32:31.312Z,21.10
2022-09-11T15:37:33.843Z,21.73
2022-09-11T15:42:39.644Z,21.06
2022-09-11T15:47:44.410Z,21.65
2022-09-11T15:52:47.052Z,21.28
2022-09-11T15:57:49.902Z,21.05
2022-09-11T16:02:53.876Z,21.79
2022-09-11T16:07:59.311Z,21.65
2022-09-11T16:13:01.899Z,21.21
2022-09-11T16:18:09.568Z,21.31
2022-09-11T16:23:12.920Z,20.47
2022-09-11T16:28:15.476Z,20.31
2022-09-11T16:33:19.400Z,19.61
2022-09-11T16:38:22.424Z,19.78
2022-09-11T16:43:25.002Z,19.37
2022-09-11T16:48:29.842Z,20.18
2022-09-11T16:53:34.328Z,19.58
2022-09-11T16:58:37.227Z,19.82
2022-09-11T17:03:42.255Z,19.69
2022-09-11T17:08:45.010Z,19.70
2022-09-11T17:13:50.764Z,19.67
2022-09-11T17:18:58.168Z,19.06
2022-09-11T17:24:00.958Z,19.19
2022-09-11T17:29:05.421Z,18.97
2022-09-11T17:34:09.770Z,18.42
2022-09-11T17:39:14.100Z,18.76
2022-09-11T17:44:16.869Z,18.63
2022-09-11T17:49:22.830Z,17.99
2022-09-11T17:54:27.266Z,17.83
2022-09-11T17:59:29.791Z,18.32
2022-09-11T18:04:33.578Z,17.50
2022-09-11T18:09:37.594Z,16.98
2022-09-11T18:14:44.216Z,17.25
2022-09-11T18:19:48.906Z,17.08
2022-09-11T18:24:51.505Z,17.15
2022-09-11T18:29:54.547Z,16.78
2022-09-11T18:35:00.142Z,16.25
2022-09-11T18:40:03.445Z,16.03
2022-09-11T18:45:08.621Z,15.85
2022-09-11T18:50:12.455Z,16.45
2022-09-11T18:55:15.792Z,15.68
2022-09-11T19:00:20.605Z,16.37
2022-09-11T19:05:26.302Z,15.81
2022-09-11T19:10:29.794Z,15.27
2022-09-11T19:15:32.324Z,15.11
2022-09-11T19:20:36.167Z,14.91
2022-09-11T19:25:39.262Z,15.64
2022-09-11T19:30:43.212Z,15.85
2022-09-11T19:35:55.220Z,16.13
2022-09-11T19:41:00.270Z,15.41
2022-09-11T19:46:03.665Z,15.53
2022-09-11T19:51:10.152Z,16.04
2022-09-11T19:56:13.497Z,15.45
2022-09-11T20:01:17.573Z,15.29
2022-09-11T20:06:24.348Z,15.39
2022-09-11T20:11:28.205Z,15.38
2022-09-11T20:16:31.549Z,14.83
2022-09-11T20:21:36.234Z,14.60
2022-09-11T20:26:38.919Z,14.62
2022-09-11T20:31:47.481Z,14.23
2022-09-11T20:36:52.275Z,14.14
2022-09-11T20:41:54.907Z,13.93
2022-09-11T20:46:57.618Z,13.83
2022-09-11T20:52:01.559Z,14.08
2022-09-11T20:57:04.206Z,14.48
2022-09-11T21:02:06.938Z,14.88
2022-09-11T21:07:11.501Z,14.64
2022-09-11T21:12:14.285Z,13.98
2022-09-11T21:17:18.132Z,14.77
2022-09-11T21:22:21.922Z,14.62
2022-09-11T21:27:24.355Z,14.82
2022-09-11T21:32:26.836Z,14.26
2022-09-11T21:37:30.624Z,14.59
2022-09-11T21:42:33.085Z,14.62
2022-09-11T21:47:35.666Z,14.83
2022-09-11T21:52:39.422Z,14.76
2022-09-11T21:57:41.971Z,15.30
2022-09-11T22:02:44.478Z,15.21
2022-09-11T22:07:48.851Z,15.51
2022-09-11T22:12:51.290Z,16.23
2022-09-11T22:17:53.764Z,15.53
2022-09-11T22:22:58.805Z,14.90
2022-09-11T22:28:01.262Z,14.89
2022-09-11T22:33:03.732Z,14.30
2022-09-11T22:38:07.760Z,14.64
2022-09-11T22:43:10.329Z,15.02
2022-09-11T22:48:12.852Z,14.91
2022-09-11T22:53:18.091Z,15.76
2022-09-11T22:58:21.395Z,15.93
2022-09-11T23:03:24.675Z,16.08
2022-09-11T23:08:38.390Z,15.67
2022-09-11T23:13:42.268Z,15.51
2022-09-11T23:18:45.260Z,14.70
2022-09-11T23:23:54.483Z,14.75
2022-09-11T23:28:59.861Z,14.80
2022-09-11T23:34:04.292Z,15.17
2022-09-11T23:39:08.100Z,15.08
2022-09-11T23:44:11.233Z,15.19
2022-09-11T23:49:15.375Z,15.27
2022-09-11T23:54:19.379Z,14.31
2022-09-11T23:59:22.102Z,14.06
